createdAt,value
2019-03-17T00:00:47.428Z,55.92
2019-03-17T00:03:37.017Z,56.95
2019-03-17T00:06:13.955Z,57.38
2019-03-17T00:09:03.738Z,57.38
2019-03-17T00:11:40.699Z,56.35
2019-03-17T00:14:31.079Z,57.13
2019-03-17T00:17:07.382Z,55.52
2019-03-17T00:19:56.834Z,57.58
2019-03-17T00:22:40.413Z,58.15
2019-03-17T00:25:31.258Z,57.20
2019-03-17T00:28:13.937Z,55.83
2019-03-17T00:31:09.945Z,56.48
2019-03-17T00:34:05.830Z,57.48
2019-03-17T00:37:01.221Z,56.70
2019-03-17T00:39:57.775Z,56.53
2019-03-17T00:42:54.154Z,57.40
2019-03-17T00:45:49.323Z,56.45
2019-03-17T00:48:39.094Z,55.50
2019-03-17T00:51:15.361Z,56.83
2019-03-17T00:54:06.789Z,56.23
2019-03-17T00:56:43.606Z,55.80
2019-03-17T00:59:39.296Z,56.45
2019-03-17T01:02:34.805Z,55.80
2019-03-17T01:05:23.887Z,57.58
2019-03-17T01:08:00.627Z,55.88
2019-03-17T01:10:51.160Z,57.95
2019-03-17T01:13:33.894Z,57.65
2019-03-17T01:16:29.454Z,58.20
2019-03-17T01:19:25.504Z,56.13
2019-03-17T01:22:21.151Z,55.88
2019-03-17T01:25:18.759Z,58.52
2019-03-17T01:28:15.090Z,57.40
2019-03-17T01:31:11.022Z,57.58
2019-03-17T01:34:06.555Z,58.23
2019-03-17T01:37:01.396Z,57.83
2019-03-17T01:39:57.007Z,58.58
2019-03-17T01:42:46.930Z,58.13
2019-03-17T01:45:30.714Z,57.23
2019-03-17T01:48:19.755Z,57.48
2019-03-17T01:51:02.327Z,56.48
2019-03-17T01:53:51.913Z,56.20
2019-03-17T01:56:35.044Z,56.65
2019-03-17T01:59:30.220Z,56.35
2019-03-17T02:02:25.757Z,55.90
2019-03-17T02:05:22.614Z,57.60
2019-03-17T02:08:12.444Z,57.17
2019-03-17T02:10:54.763Z,57.53
2019-03-17T02:13:37.974Z,56.45
2019-03-17T02:16:21.495Z,58.23
2019-03-17T02:19:05.262Z,58.17
2019-03-17T02:21:49.199Z,59.80
2019-03-17T02:24:31.724Z,57.33
2019-03-17T02:27:15.278Z,56.68
2019-03-17T02:29:57.321Z,57.40
2019-03-17T02:32:40.948Z,57.00
2019-03-17T02:35:38.631Z,56.53
2019-03-17T02:38:08.949Z,56.73
2019-03-17T02:40:58.262Z,56.90
2019-03-17T02:43:34.599Z,55.92
2019-03-17T02:46:23.872Z,56.80
2019-03-17T02:49:07.751Z,57.05
2019-03-17T02:51:50.752Z,56.35
2019-03-17T02:54:34.177Z,57.95
2019-03-17T02:57:16.860Z,56.00
2019-03-17T03:00:00.821Z,57.50
2019-03-17T03:02:57.312Z,56.50
2019-03-17T03:05:53.937Z,57.30
2019-03-17T03:08:31.617Z,56.23
2019-03-17T03:11:08.208Z,55.90
2019-03-17T03:13:58.127Z,56.70
2019-03-17T03:16:41.834Z,55.48
2019-03-17T03:19:24.230Z,55.98
2019-03-17T03:22:08.385Z,55.20
2019-03-17T03:24:50.528Z,54.45
2019-03-17T03:27:34.395Z,55.92
2019-03-17T03:30:22.518Z,54.53
2019-03-17T03:33:05.608Z,55.30
2019-03-17T03:35:48.107Z,53.25
2019-03-17T03:38:32.261Z,53.95
2019-03-17T03:41:14.957Z,54.85
2019-03-17T03:43:58.609Z,55.08
2019-03-17T03:46:43.442Z,54.23
2019-03-17T03:49:26.471Z,54.03
2019-03-17T03:52:09.614Z,53.35
2019-03-17T03:54:53.375Z,55.55
2019-03-17T03:57:36.145Z,54.73
2019-03-17T04:00:21.784Z,57.53
2019-03-17T04:03:12.332Z,59.18
2019-03-17T04:05:49.069Z,56.30
2019-03-17T04:08:38.787Z,59.45
2019-03-17T04:11:15.074Z,56.73
2019-03-17T04:14:04.540Z,58.20
2019-03-17T04:16:48.230Z,59.03
2019-03-17T04:19:31.958Z,57.35
2019-03-17T04:22:15.430Z,56.95
2019-03-17T04:25:04.410Z,57.55
2019-03-17T04:27:48.334Z,58.48
2019-03-17T04:30:31.356Z,57.40
2019-03-17T04:33:14.395Z,57.60
2019-03-17T04:35:56.833Z,58.08
2019-03-17T04:38:46.877Z,57.95
2019-03-17T04:41:30.089Z,57.67
2019-03-17T04:44:21.061Z,56.23
2019-03-17T04:46:57.667Z,56.80
2019-03-17T04:49:47.990Z,55.90
2019-03-17T04:52:31.230Z,57.43
2019-03-17T04:55:20.465Z,59.10
2019-03-17T04:57:56.633Z,57.58
2019-03-17T05:00:46.075Z,57.70
2019-03-17T05:03:28.648Z,56.02
2019-03-17T05:06:17.941Z,57.40
2019-03-17T05:08:54.557Z,57.75
2019-03-17T05:11:45.465Z,57.10
2019-03-17T05:14:21.415Z,57.83
2019-03-17T05:17:11.658Z,57.60
2019-03-17T05:19:54.422Z,58.90
2019-03-17T05:22:44.090Z,57.25
2019-03-17T05:25:20.302Z,57.80
2019-03-17T05:28:10.602Z,57.25
2019-03-17T05:30:53.471Z,57.60
2019-03-17T05:33:49.346Z,55.73
2019-03-17T05:36:44.649Z,58.33
2019-03-17T05:39:40.097Z,57.45
2019-03-17T05:42:35.224Z,59.20
2019-03-17T05:45:25.568Z,57.90
2019-03-17T05:48:08.487Z,59.90
2019-03-17T05:50:57.921Z,57.38
2019-03-17T05:53:34.790Z,57.83
2019-03-17T05:56:24.843Z,58.85
2019-03-17T05:59:00.820Z,57.67
2019-03-17T06:01:51.364Z,58.75
2019-03-17T06:04:27.915Z,56.65
2019-03-17T06:07:19.025Z,56.33
2019-03-17T06:10:01.675Z,58.30
2019-03-17T06:12:52.624Z,57.25
2019-03-17T06:15:42.612Z,58.63
2019-03-17T06:18:19.485Z,58.55
2019-03-17T06:21:09.334Z,58.83
2019-03-17T06:23:52.815Z,58.20
2019-03-17T06:26:35.499Z,60.12
2019-03-17T06:29:18.836Z,59.35
2019-03-17T06:32:08.079Z,58.87
2019-03-17T06:35:04.146Z,57.17
2019-03-17T06:37:53.653Z,58.05
2019-03-17T06:40:29.959Z,58.33
2019-03-17T06:43:20.566Z,59.50
2019-03-17T06:46:03.335Z,58.85
2019-03-17T06:48:46.827Z,57.83
2019-03-17T06:51:29.248Z,56.45
2019-03-17T06:54:13.090Z,58.55
2019-03-17T06:57:02.314Z,58.28
2019-03-17T06:59:38.880Z,59.30
2019-03-17T07:02:28.025Z,58.90
2019-03-17T07:05:23.500Z,60.73
2019-03-17T07:08:19.567Z,60.75
2019-03-17T07:11:10.952Z,58.45
2019-03-17T07:13:46.558Z,59.70
2019-03-17T07:16:38.055Z,59.60
2019-03-17T07:19:20.807Z,59.10
2019-03-17T07:22:10.076Z,61.68
2019-03-17T07:24:46.107Z,61.98
2019-03-17T07:27:35.684Z,60.88
2019-03-17T07:30:27.111Z,62.53
2019-03-17T07:33:21.959Z,62.27
2019-03-17T07:36:11.204Z,60.28
2019-03-17T07:38:47.964Z,59.53
2019-03-17T07:41:37.878Z,61.00
2019-03-17T07:44:21.178Z,58.00
2019-03-17T07:47:17.256Z,59.23
2019-03-17T07:50:06.479Z,63.38
2019-03-17T07:52:43.472Z,60.67
2019-03-17T07:55:35.544Z,58.65
2019-03-17T07:58:18.311Z,60.60
2019-03-17T08:01:14.221Z,60.33
2019-03-17T08:04:04.769Z,60.67
2019-03-17T08:07:00.200Z,61.45
2019-03-17T08:09:56.371Z,59.83
2019-03-17T08:12:52.860Z,60.00
2019-03-17T08:15:48.298Z,60.55
2019-03-17T08:18:44.201Z,59.13
2019-03-17T08:21:43.193Z,55.95
2019-03-17T08:24:31.386Z,97.10
2019-03-17T08:27:14.531Z,56.40
2019-03-17T08:29:56.737Z,54.15
2019-03-17T08:32:41.341Z,52.88
2019-03-17T08:35:25.472Z,53.15
2019-03-17T08:38:21.806Z,53.58
2019-03-17T08:40:53.364Z,42.35
2019-03-17T08:43:53.709Z,43.35
2019-03-17T08:46:27.829Z,81.47
2019-03-17T08:49:12.808Z,46.18
2019-03-17T08:51:56.557Z,47.58
2019-03-17T08:54:38.893Z,48.23
2019-03-17T08:57:22.356Z,47.08
2019-03-17T09:00:06.038Z,44.15
2019-03-17T09:02:49.980Z,42.13
2019-03-17T09:05:32.791Z,42.55
2019-03-17T09:08:15.901Z,40.63
2019-03-17T09:10:58.097Z,39.27
2019-03-17T09:13:42.133Z,41.42
2019-03-17T09:16:31.118Z,39.90
2019-03-17T09:19:14.205Z,41.40
2019-03-17T09:21:57.129Z,34.92
2019-03-17T09:24:40.531Z,30.45
2019-03-17T09:27:23.145Z,28.07
2019-03-17T09:30:05.948Z,29.42
2019-03-17T09:32:48.380Z,28.55
2019-03-17T09:35:32.669Z,28.98
2019-03-17T09:38:15.963Z,30.95
2019-03-17T09:41:00.085Z,31.60
2019-03-17T09:43:49.806Z,31.17
2019-03-17T09:46:33.245Z,27.50
2019-03-17T09:49:15.533Z,26.77
2019-03-17T09:51:59.262Z,27.22
2019-03-17T09:54:41.522Z,27.90
2019-03-17T09:57:24.849Z,27.55
2019-03-17T10:00:13.754Z,26.82
2019-03-17T10:02:56.866Z,25.43
2019-03-17T10:05:40.934Z,25.35
2019-03-17T10:08:24.668Z,24.75
2019-03-17T10:11:07.206Z,22.67
2019-03-17T10:13:57.753Z,22.48
2019-03-17T10:16:33.791Z,22.93
2019-03-17T10:19:23.779Z,21.00
2019-03-17T10:22:01.410Z,20.72
2019-03-17T10:24:51.681Z,20.25
2019-03-17T10:27:34.986Z,20.45
2019-03-17T10:30:31.813Z,19.65
2019-03-17T10:33:21.198Z,18.20
2019-03-17T10:35:57.606Z,17.17
2019-03-17T10:38:48.236Z,16.55
2019-03-17T10:41:31.711Z,15.50
2019-03-17T10:44:28.078Z,14.63
2019-03-17T10:47:24.275Z,14.23
2019-03-17T10:50:22.556Z,15.08
2019-03-17T10:52:59.186Z,14.45
2019-03-17T10:55:48.581Z,15.70
2019-03-17T10:58:30.897Z,16.12
2019-03-17T11:01:14.227Z,14.95
2019-03-17T11:04:04.559Z,14.10
2019-03-17T11:06:59.939Z,13.40
2019-03-17T11:09:55.939Z,14.30
2019-03-17T11:12:45.257Z,13.28
2019-03-17T11:15:26.089Z,14.03
2019-03-17T11:18:16.119Z,14.18
2019-03-17T11:20:53.022Z,13.60
2019-03-17T11:23:43.091Z,13.95
2019-03-17T11:26:19.859Z,15.50
2019-03-17T11:29:09.925Z,14.00
2019-03-17T11:31:46.961Z,14.30
2019-03-17T11:34:36.304Z,14.15
2019-03-17T11:37:13.027Z,13.60
2019-03-17T11:40:03.481Z,14.13
2019-03-17T11:42:40.476Z,15.83
2019-03-17T11:45:29.727Z,14.68
2019-03-17T11:48:12.895Z,14.53
2019-03-17T11:51:08.366Z,14.55
2019-03-17T11:53:57.584Z,14.38
2019-03-17T11:56:33.918Z,15.48
2019-03-17T11:59:24.356Z,14.95
2019-03-17T12:02:01.285Z,14.73
2019-03-17T12:04:51.966Z,15.55
2019-03-17T12:07:35.517Z,14.68
2019-03-17T12:10:35.628Z,15.80
2019-03-17T12:13:25.430Z,15.68
2019-03-17T12:16:02.468Z,15.30
2019-03-17T12:18:52.693Z,15.88
2019-03-17T12:21:36.460Z,14.87
2019-03-17T12:24:20.402Z,16.37
2019-03-17T12:27:03.586Z,16.50
2019-03-17T12:29:47.541Z,16.37
2019-03-17T12:32:38.598Z,15.83
2019-03-17T12:35:15.727Z,16.35
2019-03-17T12:38:05.041Z,16.00
2019-03-17T12:40:48.186Z,15.70
2019-03-17T12:43:31.097Z,15.75
2019-03-17T12:46:15.477Z,16.23
2019-03-17T12:48:57.850Z,16.93
2019-03-17T12:51:41.134Z,17.30
2019-03-17T12:54:24.360Z,16.82
2019-03-17T12:57:07.774Z,16.30
2019-03-17T12:59:50.428Z,15.58
2019-03-17T13:02:34.505Z,15.88
2019-03-17T13:05:25.134Z,16.15
2019-03-17T13:08:08.419Z,16.05
2019-03-17T13:11:04.174Z,14.95
2019-03-17T13:13:54.457Z,15.68
2019-03-17T13:16:38.070Z,15.05
2019-03-17T13:19:33.625Z,15.53
2019-03-17T13:22:16.118Z,16.10
2019-03-17T13:25:05.165Z,16.23
2019-03-17T13:27:48.372Z,16.00
2019-03-17T13:30:37.645Z,15.95
2019-03-17T13:33:14.131Z,16.35
2019-03-17T13:36:05.248Z,16.00
2019-03-17T13:38:49.883Z,16.35
2019-03-17T13:41:39.343Z,16.67
2019-03-17T13:44:16.175Z,16.65
2019-03-17T13:47:06.012Z,16.37
2019-03-17T13:49:42.649Z,16.65
2019-03-17T13:52:33.221Z,16.17
2019-03-17T13:55:16.349Z,15.05
2019-03-17T13:58:05.199Z,14.63
2019-03-17T14:03:29.651Z,15.45
2019-03-17T14:06:15.595Z,15.38
2019-03-17T14:08:58.672Z,16.65
2019-03-17T14:11:42.343Z,15.70
2019-03-17T14:14:31.285Z,15.43
2019-03-17T14:17:14.615Z,15.40
2019-03-17T14:20:03.725Z,16.25
2019-03-17T14:22:40.449Z,16.05
2019-03-17T14:25:45.154Z,15.55
2019-03-17T14:28:22.143Z,16.45
2019-03-17T14:31:12.455Z,17.07
2019-03-17T14:33:49.459Z,21.40
2019-03-17T14:36:39.478Z,17.23
2019-03-17T14:39:15.828Z,15.53
2019-03-17T14:42:05.359Z,15.10
2019-03-17T14:44:43.087Z,14.33
2019-03-17T14:47:33.335Z,13.53
2019-03-17T14:50:34.182Z,13.68
2019-03-17T14:53:29.821Z,14.50
2019-03-17T14:56:20.414Z,14.35
2019-03-17T14:59:02.904Z,13.18
2019-03-17T15:01:46.715Z,13.50
2019-03-17T15:04:29.175Z,13.85
2019-03-17T15:07:12.581Z,13.90
2019-03-17T15:09:55.031Z,13.93
2019-03-17T15:12:38.975Z,13.68
2019-03-17T15:15:23.580Z,14.33
2019-03-17T15:18:07.571Z,14.87
2019-03-17T15:20:50.048Z,14.38
2019-03-17T15:23:33.798Z,14.35
2019-03-17T15:26:22.986Z,14.10
2019-03-17T15:28:59.546Z,14.23
2019-03-17T15:31:49.690Z,13.03
2019-03-17T15:34:33.146Z,13.72
2019-03-17T15:37:22.316Z,13.20
2019-03-17T15:40:14.506Z,15.60
2019-03-17T15:42:58.145Z,15.53
2019-03-17T15:45:48.329Z,16.25
2019-03-17T15:48:25.299Z,100.22
2019-03-17T15:51:20.756Z,16.52
2019-03-17T15:53:55.185Z,16.05
2019-03-17T15:56:45.373Z,16.00
2019-03-17T15:59:22.373Z,17.32
2019-03-17T16:02:11.941Z,20.10
2019-03-17T16:04:48.767Z,17.00
2019-03-17T16:07:42.451Z,15.88
2019-03-17T16:10:33.397Z,16.82
2019-03-17T16:13:28.454Z,15.08
2019-03-17T16:16:23.311Z,16.37
2019-03-17T16:19:19.156Z,17.10
2019-03-17T16:22:15.585Z,17.15
2019-03-17T16:25:11.797Z,17.55
2019-03-17T16:28:00.586Z,15.38
2019-03-17T16:30:42.851Z,15.10
2019-03-17T16:33:26.654Z,15.60
2019-03-17T16:36:09.351Z,15.80
2019-03-17T16:38:52.669Z,15.83
2019-03-17T16:41:43.444Z,15.90
2019-03-17T16:44:20.228Z,16.67
2019-03-17T16:47:10.155Z,16.23
2019-03-17T16:49:53.596Z,16.80
2019-03-17T16:52:36.520Z,15.93
2019-03-17T16:55:20.410Z,16.40
2019-03-17T16:58:03.889Z,15.80
2019-03-17T17:00:47.088Z,15.90
2019-03-17T17:03:37.476Z,15.93
2019-03-17T17:06:14.556Z,15.43
2019-03-17T17:09:04.091Z,15.53
2019-03-17T17:11:41.264Z,14.33
2019-03-17T17:14:30.833Z,14.47
2019-03-17T17:17:35.014Z,15.25
2019-03-17T17:20:36.712Z,13.55
2019-03-17T17:23:26.005Z,13.13
2019-03-17T17:26:02.579Z,12.45
2019-03-17T17:28:51.706Z,13.50
2019-03-17T17:31:28.605Z,13.50
2019-03-17T17:34:19.135Z,13.32
2019-03-17T17:36:56.038Z,12.60
2019-03-17T17:39:46.418Z,12.80
2019-03-17T17:42:22.627Z,12.43
2019-03-17T17:45:20.162Z,12.73
2019-03-17T17:48:04.016Z,12.35
2019-03-17T17:50:47.544Z,13.65
2019-03-17T17:53:33.793Z,16.07
2019-03-17T17:56:17.557Z,17.98
2019-03-17T17:59:07.072Z,19.17
2019-03-17T18:01:43.136Z,18.92
2019-03-17T18:04:32.791Z,18.37
2019-03-17T18:07:09.240Z,18.95
2019-03-17T18:09:58.543Z,18.27
2019-03-17T18:12:42.227Z,17.85
2019-03-17T18:15:40.585Z,18.73
2019-03-17T18:18:35.613Z,18.60
2019-03-17T18:21:24.625Z,18.20
2019-03-17T18:24:07.895Z,20.55
2019-03-17T18:26:56.899Z,20.00
2019-03-17T18:29:40.048Z,18.10
2019-03-17T18:32:38.152Z,19.52
2019-03-17T18:35:27.246Z,19.15
2019-03-17T18:38:06.660Z,20.80
2019-03-17T18:40:57.506Z,23.50
2019-03-17T18:43:40.941Z,22.20
2019-03-17T18:46:31.407Z,19.73
2019-03-17T18:49:15.103Z,40.60
2019-03-17T18:52:05.167Z,20.25
2019-03-17T18:54:48.727Z,17.65
2019-03-17T18:57:44.080Z,18.35
2019-03-17T19:00:40.818Z,19.30
2019-03-17T19:03:39.898Z,19.75
2019-03-17T19:06:35.886Z,21.62
2019-03-17T19:09:31.531Z,23.15
2019-03-17T19:12:13.707Z,21.23
2019-03-17T19:15:03.623Z,21.60
2019-03-17T19:17:39.892Z,20.70
2019-03-17T19:20:30.532Z,21.48
2019-03-17T19:23:14.218Z,22.62
2019-03-17T19:26:03.356Z,21.77
2019-03-17T19:28:40.212Z,22.85
2019-03-17T19:31:29.276Z,91.63
2019-03-17T19:34:12.958Z,55.10
2019-03-17T19:36:55.259Z,24.77
2019-03-17T19:39:38.998Z,24.40
2019-03-17T19:42:21.697Z,24.63
2019-03-17T19:45:05.298Z,24.92
2019-03-17T19:47:54.682Z,25.97
2019-03-17T19:50:53.748Z,24.52
2019-03-17T19:53:43.914Z,25.10
2019-03-17T19:56:27.224Z,25.25
2019-03-17T19:59:22.403Z,25.45
2019-03-17T20:02:11.414Z,25.77
2019-03-17T20:04:49.829Z,25.30
2019-03-17T20:07:39.936Z,23.15
2019-03-17T20:10:40.346Z,22.13
2019-03-17T20:13:36.846Z,21.48
2019-03-17T20:16:31.692Z,20.08
2019-03-17T20:19:20.794Z,19.77
2019-03-17T20:22:04.324Z,20.65
2019-03-17T20:24:48.397Z,20.85
2019-03-17T20:27:30.672Z,19.52
2019-03-17T20:30:20.366Z,17.85
2019-03-17T20:32:56.537Z,16.60
2019-03-17T20:35:47.574Z,16.75
2019-03-17T20:38:24.245Z,16.40
2019-03-17T20:41:15.506Z,14.87
2019-03-17T20:43:58.696Z,14.68
2019-03-17T20:46:54.657Z,14.28
2019-03-17T20:49:44.544Z,14.35
2019-03-17T20:52:21.527Z,14.13
2019-03-17T20:55:12.179Z,14.87
2019-03-17T20:57:55.287Z,14.13
2019-03-17T21:00:50.324Z,13.20
2019-03-17T21:03:45.489Z,11.75
2019-03-17T21:06:42.675Z,11.83
2019-03-17T21:09:38.647Z,12.15
2019-03-17T21:12:22.125Z,11.05
2019-03-17T21:15:12.611Z,10.95
2019-03-17T21:18:01.566Z,10.10
2019-03-17T21:20:51.108Z,9.58
2019-03-17T21:23:27.980Z,9.50
2019-03-17T21:26:18.065Z,10.32
2019-03-17T21:28:55.858Z,8.93
2019-03-17T21:31:46.265Z,9.23
2019-03-17T21:34:22.347Z,8.53
2019-03-17T21:37:12.707Z,8.83
2019-03-17T21:39:49.657Z,8.60
2019-03-17T21:42:39.826Z,8.08
2019-03-17T21:45:20.751Z,7.65
2019-03-17T21:48:11.165Z,7.47
2019-03-17T21:50:54.989Z,7.20
2019-03-17T21:53:50.416Z,7.50
2019-03-17T21:56:45.406Z,7.30
2019-03-17T21:59:34.781Z,8.40
2019-03-17T22:02:13.153Z,8.35
2019-03-17T22:05:03.024Z,7.58
2019-03-17T22:07:48.973Z,7.03
2019-03-17T22:10:31.343Z,6.47
2019-03-17T22:13:15.174Z,6.87
2019-03-17T22:16:11.114Z,6.70
2019-03-17T22:19:07.091Z,6.80
2019-03-17T22:21:57.799Z,6.30
2019-03-17T22:24:34.899Z,6.65
2019-03-17T22:27:24.767Z,6.87
2019-03-17T22:30:01.090Z,6.95
2019-03-17T22:32:52.051Z,6.58
2019-03-17T22:35:29.442Z,6.75
2019-03-17T22:38:19.282Z,6.45
2019-03-17T22:41:08.498Z,5.80
2019-03-17T22:43:45.063Z,5.50
2019-03-17T22:46:33.988Z,5.35
2019-03-17T22:49:10.175Z,5.30
2019-03-17T22:52:00.468Z,4.87
2019-03-17T22:54:43.624Z,5.70
2019-03-17T22:57:33.446Z,5.20
2019-03-17T23:00:37.792Z,5.00
2019-03-17T23:03:28.577Z,5.00
2019-03-17T23:06:05.326Z,4.78
2019-03-17T23:08:55.298Z,5.50
2019-03-17T23:11:31.456Z,5.15
2019-03-17T23:14:22.061Z,5.15
2019-03-17T23:17:05.643Z,4.67
2019-03-17T23:20:01.631Z,4.33
2019-03-17T23:22:57.342Z,4.80
2019-03-17T23:25:47.164Z,5.33
2019-03-17T23:28:24.164Z,4.92
2019-03-17T23:31:15.225Z,5.45
2019-03-17T23:33:51.797Z,5.00
2019-03-17T23:36:41.579Z,4.55
2019-03-17T23:39:18.631Z,4.75
2019-03-17T23:42:08.737Z,5.33
2019-03-17T23:44:51.036Z,5.60
2019-03-17T23:47:34.322Z,5.00
2019-03-17T23:50:25.855Z,4.25
2019-03-17T23:53:10.113Z,4.45
2019-03-17T23:56:01.109Z,5.40
2019-03-17T23:58:43.998Z,4.70
